Firth, Idaho
Current Conditions -  °F | °C
As of 3:53 PM on Sunday 21 Dec 2014 (Local Time) from KIDA Reporting Station
Broken Clouds Broken Clouds  
Wind Chill: 36°   Ceiling: 7000
Heat Index: 42°   Visibility: 10mi
Dew Point: 36°   Wind: 10mph
Humidity: 79%   Direction: 250°WSW
Pressure: 29.78"   Gusts: NA
Location:  43.31°N, 112.18°W
Report Text: KIDA 212253Z AUTO 25009KT 10SM BKN070 06/02 A2978 RMK AO2 SLP087 T00560022
Loading
Personal Weather Stations






























Interactive Weather Map New forecast layout! Learn more

10-Day Weather Forecast

Advertisements
Track Severe Weather on mobile